Timeline UpdatesTrip UpdatesNews PostsPvt PostsTravel TipsAdmin PostsConv PostsFollowed PostsChat RequestsBlog PostsPNR Posts

Disclaimer
Search
 
 
Mon Sep 1, 2014 13:01:36 ISTHomeTrainsΣChainsAtlasPNRForumGalleryNewsFAQTripsMembersLoginFeedback
No Recent News for this Train
Other Trains in the News **new
Latest...
Tr.No.17405 Tirupati-Adilabad Krishna Express is cancelled o­n 26.04.2014
Sat Apr 26, 2014 (03:18PM)
⇐ Return Journey: Train# 17406

17405/Krishna Express

OLD Time-Table. New TT will soon be available.
Jul 17 2013 (10:50PM)
Change Departure Station:
Change Arrival Station:
Post a Train Travel TipPost a Train Travel Tip **new
Post a Comment/Question/Picture/VideoPost a Comment/Question/Picture/Video
Inaugural Run
Wed Oct 02, 1974
Pantry/Catering
✕ NO Pantry Car
✓ Catering Avbl
Loco/Rake Reversals
SC/Secunderabad Junction (10); MUE/Mudkhed Junction (4);
RSA - Rake Sharing
17405/17406/17409/17410 has RSA.
Rake/Coach Composition
LOCO-SLR-UR-UR-UR-UR-UR-B1-C1-S1-S2-D1-D2-D3-D4-D5-D6-UR-UR-SLR
Loco
TPTY - SC: LGD WAP4/7. SC - ADB: KZJ WDG-3A.
News    PNR    Forum    Time-Table    Availability    Fare Chart    Map    Arr/Dep History    Trips    Gallery    ΣChains    X/O    Timeline    
Travel Time: 2h 33m    6 halts    Distance: 84 km    Avg Speed: 32 km/hr
Type: Mail/Express
Zone: SCR/South Central
Departs @ 18:07 (Avg 1h 5m late)
Platform# 1
SMTWTFS
Jangaon/ZN 
Arrives @ 20:40 (Avg 52m late)
Platform# 6
SMTWTFS
Secunderabad Junction/SC 

6 halts. 11 intermediate Stations between Jangaon and Secunderabad Junction

Show ALL intermediate Stations  

#CodeStation NameX/OArrivesAvgDepartsAvgHaltPFDay#KmSpeedElevZoneAddress
1TPTYTirupati Main (5)  -05:25+2211-652.840150mSCRChittoor Distt, Andhra Pradesh
2RURenigunta Junction (5)X  05:40+3005:42+322m--1-642.963113mSCRChittoor District, Andhra Pradesh
3KHTSri Kalahasti (2)  06:04+3406:05+351m21-619.88268mSCRChittoor District, Andhra Pradesh
4VKIVenkatagiri (3)  06:23+3806:24+381m11-595.37677mSCRNellore District, Andhra Pradesh
5VDDVendodu (2)X  06:37+5206:38+521m--1-578.81955mSCRNellore, Andhra Pradesh
6GDRGudur Junction (3)X  07:40+2407:42+272m21-559.59419mSCRGudur, Andhra Pradesh
7VDEVedayapalem (2)X  08:02+3408:03+341m11-528.37327mSCRNellore, Andhra Pradesh
8NLRNellore (4)  08:09+3908:11+402m21-521.17921mSCRNellore, Andhra Pradesh
9BTTRBitragunta (2)  08:37+4808:38+531m11-486.87015mSCRBitragunta, Andhra Pradesh
10KVZKavali (4)X  08:52+5408:53+561m31-470.39421mSCRKavali, Andhra Pradesh
11SKMSingarayakonda (2)  09:17+1:0009:18+1:011m11-432.57226mSCRSingarayakonda, Andhra Pradesh
12TNRTanguturu (3)X  09:26+1:0409:27+1:061m--1-422.93710mSCRTanguturu, Andhra Pradesh
13OGLOngole (3)  09:57+5509:58+571m11-404.36412mSCROngole, Andhra Pradesh
14ANBAmmanabrolu (3)O  10:12+5710:13+571m--1-389.47716mSCRAmmanabrolu, Andhra Pradesh
15CJMChinnaganjam (3)XO  10:24+1:0310:25+1:041m--1-375.3839mSCRChinna Ganjam, Andhra Pradesh
16VTMVetapalem (3)XO  10:34+1:0510:35+1:061m--1-362.8798mSCRVetapalem, Andhra Pradesh
17CLXChirala (4)  10:41+1:0910:42+1:101m--1-355.0828mSCRChirala, Andhra Pradesh
18BPPBapatla (3)  10:53+1:1010:54+1:101m--1-339.94610mSCRBapatla, Andhra Pradesh
19NDONidubrolu (3)X  11:21+1:0611:22+1:061m--1-319.3519mSCRNidubrolu, Andhra Pradesh
20TELTenali Junction (5)  11:48+5411:50+552m41-297.36516mSCRTel: 08644-227834, Andhra Pradesh
21DIGDuggirala (3)  11:59+5612:00+571m--1-287.68316mSCRDuggirala, Andhra Pradesh
22PVDPeddavadiapudi (3)XO  12:07+1:0312:08+591m--1-277.91120mSCRKL University to NH 5, Andhra Pradesh
23BZAVijayawada Junction (10)X  13:15+3313:30+3315m101-266.04224mSCRVijayawada 520001, Andhra Pradesh
24KIKondapalli (2)  13:52+2813:53+281m11-250.56735mSCRKondapalli, Andhra Pradesh
25YPErrupalem (2)X  14:15+3914:16+401m--1-225.97757mSCRKhammam Dist., Telangana
26MDRMadhira (2)X  14:28+4114:29+431m21-210.58561mSCRKhammam Dist., Telangana
27BKLBona Kalu (2)  14:41+5014:42+521m21-193.513997mSCRKhammam Dist., Telangana
28KMTKhammam (2)  14:54+1:0414:56+1:052m21-165.749118mSCRKhammam 507001, Telangana
29DKJDornakal Junction (3)X  15:24+5715:25+581m11-142.657153mSCRWarangal District, Telangana
30GLAGarla (2)  15:30-15:31-1m21-137.974156mSCRKhammam Dist., Telangana
31MABDMahbubabad (2)  15:47+1:0015:48+1:021m21-118.281200mSCRWarangal Dist., Telangana
32KDMKesamudram (2)  15:59+1:0616:00+1:071m21-103.377223mSCRWarangal Dist., Telangana
33NKDNekonda (2)  16:12+1:0816:13+1:091m21-87.842236mSCRWarangal Dist., Telangana
34WLWarangal (3)  16:55+5516:57+562m31-58.129271mSCRWarangal., Telangana
35KZJKazipet Junction (3)X  17:18+5717:20+582m31-47.957292mSCRWarangal Dist., Telangana
36GNPGhanpur (2)X  17:41+1:0317:42+1:031m11-28.167344mSCRWarangal Dist. / Enq Ph : 08711 220231, Telangana
37RGPRaghunathpalli (2)O  17:57+1:0017:58+1:011m11-11.385357mSCRWarangal Dist., Telangana
38ZN»Jangaon (2)»  18:06+1:0418:07+1:051m110.055380mSCRWarangal Dist., Telangana
39PBPPembarti (2)  18:13+1:0418:14+1:051m115.564382mSCRWarangal Dist., Telangana
40ALERAler (2)X  18:23+1:0418:24+1:051m1115.040366mSCRNalgonda Dist., Telangana
41RAGRaigir (2)  18:48+2718:49+271m1130.865415mSCRNalgonda, Telangana
42BGBhongir (3)X  18:55+5918:56+591m2137.370455mSCRNalgonda Dist., Telangana
43CHZCharlapalli (2)X  19:25+1:0019:26+1:021m1171.344523mSCRRangareddy Dist., Telangana
44MLYMoula Ali (2)O  19:35+5819:36+581m2178.05520mSCRSecunderabad, Telangana
45SC•Secunderabad Junction (10)•XO20:40+5221:10+3730m6183.715539mSCRSecunderabad 500003, Telangana
46MJFMalkajgiri (3)  21:24+4621:25+461m3187.138535mSCRSecunderabad, Telangana
47BMOBolarum (3)  21:41+4621:42+471m2197.375597mSCRSecunderabad, Telangana
48MZLMirzapalli (1)  22:29+5322:30+551m11156.081530mSCRMedak Dist., Telangana
49AKEAkanapet (1)  22:38+5422:39+541m11166.873566mSCRMedak District., Telangana
50KMCKamareddi (3)  23:00+5623:02+562m--1192.553528mSCRNizamabad Dist., Telangana
51NZBNizamabad (3)  00:01+4200:05+454m12244.371384mSCRNizamabad, Telangana
52BSXBasar (2)  00:30+4700:32+472m12273.766358mSCRDist Adilabad, Telangana
53DABDharmabad (2)  00:41+4800:42+511m22283.671354mSCRDegaon, Maharashtra
54UMRIUmri (1)XO  01:07+5701:08+581m12313.014381mSCRHuzur Sahib Nanded, Maharashtra
55MUEMudkhed Junction (4)X02:30+5102:40+1:1010m12332.567378mSCRMudkhed, Maharashtra
56BOKRBhokar  02:59+1:1403:00+1:161m12353.756460mSCRBhokar, Maharashtra
57HEMHimayatnagar  03:39+1:1403:40+1:151m--2389.867398mSCRNanded, Maharashtra
58SHSKSahasrakund  03:54+1:1703:55+1:171m--2405.475402mSCRNanded, Maharashtra
59BHBKBodhadi Bujrug  04:19+1:2404:20+1:261m--2435.563357mSCRKinwat, Maharashtra
60KNVTKinwat (2)X  04:34+1:2804:35+1:291m12450.227319mSCRKinwat, Maharashtra
61ADBAdilabad (3)  06:15+6-12495.4-248mSCRAdilabad, Telangana
Scroll to Top
Scroll to Bottom